Time;durP1;ratioP1;P1;durP2;ratioP2;P2;SDS_P1;SDS_P2;PMS_P1;PMS_P2;Temp;Humidity;BMP_temperature;BMP_pressure;BME280_temperature;BME280_humidity;BME280_pressure;Samples;Min_cycle;Max_cycle;Signal;HPM_P1;HPM_P2
2021/12/12 00:02:07;;;;;;;19.50;8.32;;;;;;;5.94;100.00;101802.22;5071917;28;20510;-31
2021/12/12 00:04:38;;;;;;;21.95;8.80;;;;;;;5.91;100.00;101784.16;5068815;28;20051;-35
2021/12/12 00:07:09;;;;;;;19.38;8.70;;;;;;;5.92;100.00;101785.84;5071780;28;20181;-36
2021/12/12 00:09:41;;;;;;;19.83;9.55;;;;;;;5.89;100.00;101780.78;5071434;28;20044;-38
2021/12/12 00:12:12;;;;;;;18.52;8.45;;;;;;;5.92;100.00;101783.06;5071136;28;20067;-30
2021/12/12 00:14:40;;;;;;;19.85;7.95;;;;;;;5.92;100.00;101779.47;5071429;28;20474;-38
2021/12/12 00:17:10;;;;;;;21.65;8.80;;;;;;;5.91;100.00;101772.25;5071877;28;20123;-32
2021/12/12 00:19:40;;;;;;;17.00;8.27;;;;;;;5.88;100.00;101779.94;5070590;28;20041;-33
2021/12/12 00:22:10;;;;;;;22.45;7.97;;;;;;;5.87;100.00;101781.00;5061086;28;20059;-39
2021/12/12 00:24:38;;;;;;;18.30;7.97;;;;;;;5.90;100.00;101770.56;5071015;28;20448;-34
2021/12/12 00:27:07;;;;;;;21.45;9.13;;;;;;;5.90;100.00;101768.63;5070980;28;20074;-33
2021/12/12 00:29:36;;;;;;;18.20;8.35;;;;;;;5.90;100.00;101771.41;5070958;28;20048;-40
2021/12/12 00:32:07;;;;;;;18.98;8.45;;;;;;;5.87;100.00;101769.94;5070626;28;20052;-34
2021/12/12 00:34:38;;;;;;;17.90;8.13;;;;;;;5.90;100.00;101768.63;5071022;28;20049;-32
2021/12/12 00:37:10;;;;;;;20.63;8.07;;;;;;;5.91;100.00;101762.00;5071130;28;20047;-37
2021/12/12 00:39:40;;;;;;;20.40;8.20;;;;;;;5.91;100.00;101770.31;5070775;28;20036;-34
2021/12/12 00:42:12;;;;;;;19.10;8.55;;;;;;;5.94;100.00;101752.38;5069975;28;20474;-36
2021/12/12 00:44:44;;;;;;;21.67;9.45;;;;;;;5.96;100.00;101755.72;5071185;28;20048;-38
2021/12/12 00:47:13;;;;;;;15.57;8.15;;;;;;;6.00;100.00;101740.28;5070285;28;20079;-33
2021/12/12 00:50:02;;;;;;;19.73;8.60;;;;;;;6.00;100.00;101738.34;5069756;28;20452;-38
2021/12/12 00:52:32;;;;;;;18.88;8.90;;;;;;;6.03;100.00;101735.09;5070973;28;20091;-36
2021/12/12 00:55:00;;;;;;;18.30;8.82;;;;;;;6.09;100.00;101738.81;5070476;28;20044;-37
2021/12/12 00:57:29;;;;;;;19.35;9.38;;;;;;;6.13;100.00;101734.44;5070967;28;20178;-36
2021/12/12 00:59:57;;;;;;;18.60;9.38;;;;;;;6.17;100.00;101725.41;5070360;28;20051;-40
2021/12/12 01:02:29;;;;;;;25.17;9.30;;;;;;;6.20;100.00;101735.13;5070770;28;20044;-30
2021/12/12 01:05:00;;;;;;;16.50;7.95;;;;;;;6.23;100.00;101729.09;5071198;28;20056;-36
2021/12/12 01:07:30;;;;;;;20.42;8.95;;;;;;;6.26;100.00;101711.97;5066565;28;20512;-37
2021/12/12 01:10:05;;;;;;;19.35;8.73;;;;;;;6.29;100.00;101717.00;5054439;28;20067;-36
2021/12/12 01:12:34;;;;;;;21.40;8.98;;;;;;;6.31;100.00;101712.06;5071193;28;20102;-35
2021/12/12 01:15:10;;;;;;;21.17;7.97;;;;;;;6.33;100.00;101711.81;5070422;28;20048;-36
2021/12/12 01:17:43;;;;;;;17.13;7.60;;;;;;;6.36;100.00;101714.09;5074989;28;20037;-31
2021/12/12 01:20:19;;;;;;;22.15;8.30;;;;;;;6.38;100.00;101720.22;5074876;28;20049;-30
2021/12/12 01:22:50;;;;;;;18.13;7.60;;;;;;;6.40;100.00;101720.78;5074245;28;20048;-36
2021/12/12 01:25:24;;;;;;;17.27;7.00;;;;;;;6.44;100.00;101730.28;5075154;28;20048;-38
2021/12/12 01:27:52;;;;;;;18.00;7.28;;;;;;;6.44;100.00;101753.31;5074497;28;20048;-39
2021/12/12 01:30:22;;;;;;;14.38;6.43;;;;;;;6.50;100.00;101734.84;5074375;28;20062;-33
2021/12/12 01:32:51;;;;;;;12.80;6.40;;;;;;;6.54;100.00;101736.88;5074525;28;20096;-30
2021/12/12 01:35:20;;;;;;;17.90;6.53;;;;;;;6.55;100.00;101743.25;5074023;28;20051;-33
2021/12/12 01:40:38;;;;;;;18.15;6.13;;;;;;;6.59;100.00;101738.06;5073998;28;20068;-37
2021/12/12 01:43:12;;;;;;;12.13;6.05;;;;;;;6.61;100.00;101742.22;5072813;28;20049;-36
2021/12/12 01:45:45;;;;;;;14.35;6.00;;;;;;;6.63;100.00;101734.50;5074420;28;20044;-34
2021/12/12 01:48:19;;;;;;;13.27;5.05;;;;;;;6.67;100.00;101745.94;5073160;28;20087;-32
2021/12/12 01:50:51;;;;;;;14.52;4.75;;;;;;;6.69;100.00;101732.66;5073978;28;20047;-35
2021/12/12 01:53:21;;;;;;;11.73;5.10;;;;;;;6.71;100.00;101739.66;5073868;28;20049;-39
2021/12/12 01:55:55;;;;;;;17.23;5.60;;;;;;;6.73;100.00;101725.53;5074244;28;20051;-31
2021/12/12 01:58:25;;;;;;;18.40;5.90;;;;;;;6.74;100.00;101736.38;5073219;28;20394;-33
2021/12/12 02:01:06;;;;;;;17.27;5.40;;;;;;;6.80;100.00;101740.03;5074430;28;20051;-33
2021/12/12 02:03:36;;;;;;;15.80;5.20;;;;;;;6.82;100.00;101735.94;5073707;28;20207;-34
2021/12/12 02:06:08;;;;;;;17.13;4.68;;;;;;;6.83;100.00;101734.84;5073877;28;20052;-34
2021/12/12 02:08:39;;;;;;;14.98;5.07;;;;;;;6.85;100.00;101729.88;5074004;28;20037;-38
2021/12/12 02:11:12;;;;;;;12.65;4.35;;;;;;;6.87;100.00;101729.63;5073669;28;20102;-35
2021/12/12 02:13:42;;;;;;;16.58;5.00;;;;;;;6.88;100.00;101731.31;5074077;28;20062;-39
2021/12/12 02:16:11;;;;;;;15.57;5.50;;;;;;;6.88;100.00;101721.06;5073933;28;20497;-34
2021/12/12 02:18:45;;;;;;;17.52;5.28;;;;;;;6.95;100.00;101712.56;5072729;28;20044;-35
2021/12/12 02:21:23;;;;;;;21.23;5.57;;;;;;;6.98;100.00;101720.38;5073815;28;20134;-31
2021/12/12 02:35:12;;;;;;;12.80;4.25;;;;;;;7.12;100.00;101704.22;5073513;28;20037;-34
2021/12/12 02:37:41;;;;;;;14.98;3.80;;;;;;;7.17;100.00;101698.72;5073466;28;20497;-32
2021/12/12 02:40:17;;;;;;;15.75;4.40;;;;;;;7.19;100.00;101694.56;5069297;28;20032;-33
2021/12/12 02:42:45;;;;;;;12.70;3.97;;;;;;;7.21;100.00;101703.50;5073299;28;20064;-36
2021/12/12 02:45:16;;;;;;;14.70;4.30;;;;;;;7.23;100.00;101703.25;5073042;28;20490;-34
2021/12/12 02:47:45;;;;;;;13.10;4.13;;;;;;;7.24;100.00;101703.00;5072682;28;20385;-32
2021/12/12 02:50:19;;;;;;;16.67;4.50;;;;;;;7.26;100.00;101703.56;5072650;28;20143;-33
2021/12/12 02:52:55;;;;;;;15.20;4.18;;;;;;;7.28;100.00;101708.88;5072722;28;20417;-37
2021/12/12 02:55:28;;;;;;;14.90;4.22;;;;;;;7.25;100.00;101699.13;5072830;28;20044;-31
2021/12/12 02:57:59;;;;;;;13.35;4.05;;;;;;;7.29;100.00;101698.59;5073302;28;20037;-31
2021/12/12 03:00:31;;;;;;;11.57;4.30;;;;;;;7.29;100.00;101706.94;5072129;28;20095;-29
2021/12/12 03:03:00;;;;;;;15.50;4.32;;;;;;;7.30;100.00;101700.28;5073056;28;20497;-32
2021/12/12 03:05:40;;;;;;;13.85;4.40;;;;;;;7.32;100.00;101698.09;5072611;28;20059;-38
2021/12/12 03:08:08;;;;;;;13.50;4.28;;;;;;;7.31;100.00;101697.25;5072406;28;20128;-34
2021/12/12 03:10:41;;;;;;;13.38;4.50;;;;;;;7.32;100.00;101687.84;5072497;28;20051;-37
2021/12/12 03:13:10;;;;;;;14.25;4.47;;;;;;;7.34;100.00;101704.25;5072754;28;20059;-36
2021/12/12 03:15:40;;;;;;;13.00;4.68;;;;;;;7.36;100.00;101688.16;5071847;28;20044;-34
2021/12/12 03:18:13;;;;;;;13.88;4.72;;;;;;;7.36;100.00;101697.34;5072680;28;20405;-35
2021/12/12 03:20:44;;;;;;;15.43;4.70;;;;;;;7.36;100.00;101696.50;5071629;28;20079;-32
2021/12/12 03:23:19;;;;;;;15.77;5.18;;;;;;;7.38;100.00;101697.06;5072770;28;20059;-30
2021/12/12 03:25:53;;;;;;;13.10;4.85;;;;;;;7.38;100.00;101692.38;5072136;28;20040;-32
2021/12/12 03:28:23;;;;;;;15.02;5.85;;;;;;;7.40;100.00;101700.41;5061553;28;20504;-33
2021/12/12 03:30:55;;;;;;;18.77;6.28;;;;;;;7.42;100.00;101703.78;5072073;28;20405;-33
2021/12/12 03:33:24;;;;;;;16.05;5.28;;;;;;;7.44;100.00;101701.59;5072350;28;20505;-35
2021/12/12 03:35:55;;;;;;;17.52;5.15;;;;;;;7.50;100.00;101706.13;5071425;28;20045;-32
2021/12/12 03:38:27;;;;;;;20.98;5.60;;;;;;;7.53;100.00;101708.38;5072197;28;20049;-33
2021/12/12 03:41:00;;;;;;;21.00;5.50;;;;;;;7.55;100.00;101703.41;5072174;28;22004;-37
2021/12/12 03:43:29;;;;;;;17.70;6.05;;;;;;;7.58;100.00;101697.34;5071985;28;20048;-32
2021/12/12 03:45:57;;;;;;;20.17;5.63;;;;;;;7.61;100.00;101696.78;5071781;28;20051;-37
2021/12/12 03:48:29;;;;;;;17.90;5.75;;;;;;;7.64;100.00;101685.16;5071940;28;20429;-31
2021/12/12 03:51:00;;;;;;;15.07;5.25;;;;;;;7.64;100.00;101689.88;5071380;28;20066;-35
2021/12/12 03:53:30;;;;;;;21.95;6.43;;;;;;;7.64;100.00;101699.06;5071945;28;20056;-33
2021/12/12 03:56:00;;;;;;;21.33;5.57;;;;;;;7.67;100.00;101718.00;5071099;28;20504;-31
2021/12/12 03:58:28;;;;;;;15.43;6.15;;;;;;;7.68;100.00;101685.50;5071793;28;20056;-32
2021/12/12 04:00:59;;;;;;;16.83;6.35;;;;;;;7.70;100.00;101678.59;5071635;28;20048;-30
2021/12/12 04:03:27;;;;;;;17.98;6.53;;;;;;;7.73;100.00;101691.13;5071084;28;20517;-36
2021/12/12 04:05:59;;;;;;;29.17;6.30;;;;;;;7.73;100.00;101685.56;5071823;28;20048;-34
2021/12/12 04:08:28;;;;;;;24.92;6.15;;;;;;;7.75;100.00;101681.44;5071691;28;20056;-32
2021/12/12 04:10:56;;;;;;;18.70;5.97;;;;;;;7.76;100.00;101683.09;5069702;28;20421;-32
2021/12/12 04:13:25;;;;;;;21.23;5.75;;;;;;;7.79;100.00;101681.75;5071296;28;20071;-30
2021/12/12 04:15:55;;;;;;;18.83;5.47;;;;;;;7.80;100.00;101684.25;5071414;28;20047;-33
2021/12/12 04:18:25;;;;;;;17.75;5.95;;;;;;;7.81;100.00;101679.53;5067233;28;20048;-36
2021/12/12 04:20:54;;;;;;;22.60;5.72;;;;;;;7.82;100.00;101690.38;5071693;28;20048;-35
2021/12/12 04:23:25;;;;;;;22.00;6.25;;;;;;;7.84;100.00;101693.75;5070982;28;20496;-31
2021/12/12 04:25:54;;;;;;;20.50;5.68;;;;;;;7.85;100.00;101692.66;5071051;28;20116;-34
2021/12/12 04:28:22;;;;;;;21.85;6.50;;;;;;;7.86;100.00;101682.38;5070681;28;20487;-27
2021/12/12 04:30:51;;;;;;;16.75;6.07;;;;;;;7.88;100.00;101689.34;5071590;28;20143;-33
2021/12/12 04:33:19;;;;;;;23.73;6.13;;;;;;;7.91;100.00;101680.50;5070286;28;20485;-34
2021/12/12 04:35:47;;;;;;;19.88;6.55;;;;;;;7.93;100.00;101675.53;5071452;28;20075;-32
2021/12/12 04:38:14;;;;;;;27.83;7.85;;;;;;;7.95;100.00;101687.22;5070272;28;20137;-33
2021/12/12 04:40:42;;;;;;;24.48;7.32;;;;;;;7.97;100.00;101692.50;5071014;28;20132;-29
2021/12/12 04:43:10;;;;;;;32.95;7.57;;;;;;;7.99;100.00;101681.97;5070674;28;20044;-35
2021/12/12 04:45:51;;;;;;;33.67;8.13;;;;;;;8.03;100.00;101682.25;5070627;28;20048;-35
2021/12/12 04:51:18;;;;;;;26.65;7.53;;;;;;;8.10;100.00;101685.69;5070294;28;20501;-38
2021/12/12 04:53:49;;;;;;;36.83;7.85;;;;;;;8.14;100.00;101684.06;5070134;28;20044;-29
2021/12/12 04:56:20;;;;;;;32.95;7.68;;;;;;;8.18;100.00;101688.00;5071005;28;20428;-32
2021/12/12 04:58:58;;;;;;;32.88;8.55;;;;;;;8.21;100.00;101690.22;5070769;28;20054;-31
2021/12/12 05:01:32;;;;;;;36.53;7.93;;;;;;;8.23;100.00;101679.69;5070393;28;20056;-33
2021/12/12 05:04:07;;;;;;;29.05;7.80;;;;;;;8.26;100.00;101685.56;5070714;28;20642;-37
2021/12/12 05:06:40;;;;;;;31.58;7.85;;;;;;;8.28;100.00;101686.16;5059631;28;20485;-37
2021/12/12 05:09:15;;;;;;;38.70;8.63;;;;;;;8.32;100.00;101688.41;5069743;28;20056;-34
2021/12/12 05:11:48;;;;;;;32.05;8.13;;;;;;;8.35;100.00;101696.25;5069054;28;20155;-29
2021/12/12 05:14:22;;;;;;;31.77;8.13;;;;;;;8.38;100.00;101679.88;5069651;28;20040;-36
2021/12/12 05:16:53;;;;;;;42.33;8.80;;;;;;;8.40;100.00;101683.22;5071059;28;20404;-28
2021/12/12 05:19:28;;;;;;;31.58;8.55;;;;;;;8.42;100.00;101686.56;5070183;28;20056;-36
2021/12/12 05:22:01;;;;;;;34.63;7.97;;;;;;;8.44;100.00;101683.53;5070266;28;20044;-34
2021/12/12 05:24:30;;;;;;;33.92;7.75;;;;;;;8.46;100.00;101692.44;5070343;28;20056;-33
2021/12/12 05:27:04;;;;;;;34.65;7.18;;;;;;;8.49;100.00;101697.47;5070656;28;20048;-39
2021/12/12 05:29:40;;;;;;;48.03;8.70;;;;;;;8.51;100.00;101704.47;5070109;28;20040;-34
2021/12/12 05:32:10;;;;;;;37.03;7.40;;;;;;;8.51;100.00;101710.03;5070715;28;20045;-35
2021/12/12 05:34:42;;;;;;;40.17;8.52;;;;;;;8.53;100.00;101699.47;5069838;28;20101;-37
2021/12/12 05:37:12;;;;;;;38.33;7.72;;;;;;;8.55;100.00;101702.00;5067395;28;20056;-36
2021/12/12 05:39:40;;;;;;;40.47;7.68;;;;;;;8.56;100.00;101715.66;5070468;28;20055;-34
2021/12/12 05:42:09;;;;;;;36.50;7.80;;;;;;;8.58;100.00;101713.44;5068951;28;20675;-38
2021/12/12 05:44:37;;;;;;;30.17;7.38;;;;;;;8.61;100.00;101721.22;5070249;28;20036;-38
2021/12/12 05:47:07;;;;;;;36.33;7.80;;;;;;;8.64;100.00;101714.28;5070093;28;20524;-37
2021/12/12 05:49:37;;;;;;;42.20;7.25;;;;;;;8.66;100.00;101712.09;5070025;28;20040;-37
2021/12/12 05:52:10;;;;;;;41.13;7.25;;;;;;;8.69;100.00;101727.41;5070153;28;20489;-36
2021/12/12 05:54:39;;;;;;;37.88;6.93;;;;;;;8.70;100.00;101724.38;5070347;28;20055;-36
2021/12/12 05:57:09;;;;;;;38.22;6.93;;;;;;;8.74;100.00;101727.47;5066039;28;20071;-35
2021/12/12 05:59:37;;;;;;;45.10;6.93;;;;;;;8.73;100.00;101726.63;5053807;28;20550;-38
2021/12/12 06:02:07;;;;;;;37.30;6.93;;;;;;;8.77;100.00;101735.28;5069174;28;20102;-38
2021/12/12 06:04:36;;;;;;;44.53;7.25;;;;;;;8.80;100.00;101743.91;5073707;28;20063;-41
2021/12/12 06:07:05;;;;;;;34.20;6.57;;;;;;;8.83;100.00;101742.56;5073839;28;20055;-36
2021/12/12 06:09:36;;;;;;;34.88;6.60;;;;;;;8.85;100.00;101749.53;5072111;28;20059;-33
2021/12/12 06:12:06;;;;;;;33.00;5.72;;;;;;;8.89;100.00;101752.63;5073579;28;20053;-35
2021/12/12 06:14:37;;;;;;;44.80;6.90;;;;;;;8.93;100.00;101754.63;5074006;28;20113;-40
2021/12/12 06:17:09;;;;;;;32.50;6.60;;;;;;;8.97;100.00;101754.94;5073090;28;20472;-31
2021/12/12 06:19:39;;;;;;;42.67;7.35;;;;;;;8.98;100.00;101756.63;5074120;28;20135;-37
2021/12/12 06:22:08;;;;;;;47.13;7.05;;;;;;;8.99;100.00;101761.09;5073357;28;20139;-35
2021/12/12 06:24:39;;;;;;;47.20;7.45;;;;;;;8.98;100.00;101763.03;5073271;28;20048;-40
2021/12/12 06:27:11;;;;;;;31.90;6.20;;;;;;;8.97;100.00;101772.47;5073237;28;20047;-34
2021/12/12 06:29:39;;;;;;;45.90;7.70;;;;;;;8.98;100.00;101763.03;5073840;28;20049;-30
2021/12/12 06:32:08;;;;;;;48.35;6.95;;;;;;;9.01;100.00;101766.34;5072678;28;20059;-36
2021/12/12 06:34:36;;;;;;;40.70;7.75;;;;;;;8.99;100.00;101766.66;5073553;28;20048;-34
2021/12/12 06:37:05;;;;;;;48.10;8.05;;;;;;;9.02;100.00;101768.03;5072987;28;20512;-32
2021/12/12 06:39:37;;;;;;;41.63;7.45;;;;;;;9.02;100.00;101770.81;5072974;28;20056;-33
2021/12/12 06:42:08;;;;;;;40.97;7.80;;;;;;;8.99;100.00;101761.09;5072949;28;20044;-30
2021/12/12 06:44:38;;;;;;;34.15;6.53;;;;;;;9.00;100.00;101768.28;5072935;28;20044;-31
2021/12/12 06:47:08;;;;;;;40.20;6.88;;;;;;;9.02;100.00;101768.88;5072835;28;20076;-33
2021/12/12 06:49:37;;;;;;;44.70;7.70;;;;;;;9.03;100.00;101764.13;5073261;28;20390;-39
2021/12/12 06:52:09;;;;;;;36.90;6.80;;;;;;;9.03;100.00;101773.34;5072402;28;20056;-31
2021/12/12 06:54:39;;;;;;;42.85;7.78;;;;;;;9.03;100.00;101778.91;5072962;28;20050;-38
2021/12/12 06:57:11;;;;;;;46.85;7.75;;;;;;;9.04;100.00;101776.97;5073041;28;20044;-34
2021/12/12 06:59:45;;;;;;;34.70;6.25;;;;;;;9.04;100.00;101783.38;5072215;28;20056;-33
2021/12/12 07:02:13;;;;;;;34.97;5.90;;;;;;;9.01;100.00;101783.91;5072850;28;20045;-34
2021/12/12 07:04:44;;;;;;;40.53;6.47;;;;;;;9.05;100.00;101793.41;5072781;28;20052;-37
2021/12/12 07:07:15;;;;;;;30.58;6.55;;;;;;;9.08;100.00;101795.66;5072363;28;20056;-36
2021/12/12 07:09:47;;;;;;;33.20;5.90;;;;;;;9.08;100.00;101798.44;5072486;28;20045;-33
2021/12/12 07:12:22;;;;;;;31.52;6.90;;;;;;;9.08;100.00;101798.44;5072760;28;20056;-31
2021/12/12 07:14:50;;;;;;;37.03;6.60;;;;;;;9.10;100.00;101804.59;5069022;28;20053;-34
2021/12/12 07:17:19;;;;;;;33.15;5.82;;;;;;;9.11;100.00;101808.22;5072699;28;20402;-35
2021/12/12 07:19:48;;;;;;;38.67;6.30;;;;;;;9.11;100.00;101809.06;5072025;28;20405;-34
2021/12/12 07:22:16;;;;;;;39.50;7.15;;;;;;;9.11;100.00;101806.25;5072327;28;20924;-39
2021/12/12 07:24:46;;;;;;;29.92;6.22;;;;;;;9.14;100.00;101805.75;5071218;28;20040;-36
2021/12/12 07:27:15;;;;;;;34.05;6.18;;;;;;;9.12;100.00;101813.50;5070218;28;20056;-39
2021/12/12 07:29:43;;;;;;;38.72;7.20;;;;;;;9.15;100.00;101817.72;5071008;28;20051;-32
2021/12/12 07:32:11;;;;;;;35.70;6.75;;;;;;;9.15;100.00;101813.00;5071577;28;20060;-39
2021/12/12 07:34:39;;;;;;;39.83;7.47;;;;;;;9.16;100.00;101814.66;5070249;28;20470;-32
2021/12/12 07:37:09;;;;;;;29.52;6.00;;;;;;;9.15;100.00;101820.50;5071055;28;20071;-39
2021/12/12 07:39:41;;;;;;;33.97;5.68;;;;;;;9.16;100.00;101813.81;5070698;28;20127;-29
2021/12/12 07:42:11;;;;;;;28.00;6.45;;;;;;;9.16;100.00;101808.25;5070381;28;20044;-33
2021/12/12 07:44:40;;;;;;;24.60;6.28;;;;;;;9.17;100.00;101809.94;5070106;28;20056;-33
2021/12/12 07:47:13;;;;;;;34.93;6.00;;;;;;;9.15;100.00;101824.13;5071041;28;20053;-38
2021/12/12 07:49:45;;;;;;;30.48;6.40;;;;;;;9.15;100.00;101821.34;5069459;28;20056;-35
2021/12/12 07:52:18;;;;;;;28.23;6.40;;;;;;;9.15;100.00;101821.34;5070720;28;20053;-35
2021/12/12 07:54:49;;;;;;;25.20;5.68;;;;;;;9.15;100.00;101835.25;5070198;28;20040;-33
2021/12/12 07:57:20;;;;;;;29.15;5.95;;;;;;;9.16;100.00;101828.59;5059388;28;20501;-31
2021/12/12 07:59:48;;;;;;;26.20;5.53;;;;;;;9.18;100.00;101834.75;5068922;28;20099;-30
2021/12/12 08:02:17;;;;;;;31.05;6.10;;;;;;;9.18;100.00;101836.69;5067235;28;20453;-36
2021/12/12 08:04:45;;;;;;;27.48;5.55;;;;;;;9.21;100.00;101830.56;5069206;28;20080;-34
2021/12/12 08:07:17;;;;;;;37.10;6.22;;;;;;;9.23;100.00;101837.53;5067781;28;20049;-39
2021/12/12 08:09:46;;;;;;;31.70;6.15;;;;;;;9.25;100.00;101840.06;5069214;28;20476;-38
2021/12/12 08:12:17;;;;;;;22.13;5.28;;;;;;;9.26;100.00;101853.72;5069604;28;20053;-31
2021/12/12 08:14:47;;;;;;;35.97;5.63;;;;;;;9.28;100.00;101848.72;5070257;28;20132;-32
2021/12/12 08:17:16;;;;;;;23.63;5.10;;;;;;;9.30;100.00;101859.59;5068715;28;20084;-38
2021/12/12 08:19:44;;;;;;;28.25;5.57;;;;;;;9.30;100.00;101860.44;5069605;28;20050;-31
2021/12/12 08:22:12;;;;;;;24.92;5.38;;;;;;;9.33;100.00;101865.47;5069638;28;20048;-31
2021/12/12 08:24:41;;;;;;;31.67;5.95;;;;;;;9.37;100.00;101870.53;5067944;28;20051;-34
2021/12/12 08:27:11;;;;;;;30.00;5.25;;;;;;;9.40;100.00;101878.31;5065587;28;20048;-35
2021/12/12 08:29:41;;;;;;;25.90;4.90;;;;;;;9.40;100.00;101876.38;5052815;28;20052;-32
2021/12/12 08:32:12;;;;;;;23.45;4.75;;;;;;;9.43;100.00;101881.44;5068400;28;20051;-38
2021/12/12 08:35:01;;;;;;;26.98;4.78;;;;;;;9.45;100.00;101878.38;5055691;28;20489;-30
2021/12/12 08:37:30;;;;;;;27.17;4.80;;;;;;;9.48;100.00;101881.47;5067875;28;20387;-35
2021/12/12 08:39:59;;;;;;;25.00;3.97;;;;;;;9.50;100.00;101890.41;5070021;28;20044;-33
2021/12/12 08:42:27;;;;;;;21.63;3.25;;;;;;;9.50;100.00;101886.78;5069564;28;20059;-34
2021/12/12 08:44:56;;;;;;;21.83;2.92;;;;;;;9.53;100.00;101891.81;5069375;28;20148;-34
2021/12/12 08:47:27;;;;;;;25.98;3.55;;;;;;;9.56;100.00;101894.09;5069387;28;20048;-33
2021/12/12 08:49:55;;;;;;;22.58;3.50;;;;;;;9.58;100.00;101889.94;5069941;28;20055;-34
2021/12/12 08:52:30;;;;;;;22.20;3.05;;;;;;;9.61;100.00;101896.88;5068938;28;20048;-38
2021/12/12 08:55:00;;;;;;;24.73;3.47;;;;;;;9.62;100.00;101901.34;5070024;28;20078;-33
2021/12/12 08:57:39;;;;;;;22.10;3.10;;;;;;;9.62;100.00;101899.41;5069678;28;20147;-37
2021/12/12 09:00:32;;;;;;;20.90;3.13;;;;;;;9.63;100.00;101898.28;5068625;28;20102;-34
2021/12/12 09:03:02;;;;;;;18.17;2.95;;;;;;;9.63;100.00;101905.81;5069596;28;20497;-36
2021/12/12 09:05:33;;;;;;;20.27;3.30;;;;;;;9.65;100.00;101903.59;5069169;28;20071;-38
2021/12/12 09:08:19;;;;;;;15.13;2.63;;;;;;;9.66;100.00;101920.06;5070071;28;20472;-33
2021/12/12 09:10:53;;;;;;;13.70;3.05;;;;;;;9.65;100.00;101909.19;5069624;28;20052;-32
2021/12/12 09:13:23;;;;;;;21.02;3.33;;;;;;;9.67;100.00;101916.16;5068681;28;20059;-39
2021/12/12 09:16:02;;;;;;;19.25;3.53;;;;;;;9.69;100.00;101913.13;5069406;28;20037;-35
2021/12/12 09:18:37;;;;;;;21.30;3.75;;;;;;;9.69;100.00;101924.25;5066958;28;20102;-35
2021/12/12 09:21:10;;;;;;;25.02;3.25;;;;;;;9.72;100.00;101928.47;5069053;28;20080;-32
2021/12/12 09:23:44;;;;;;;27.15;3.95;;;;;;;9.72;100.00;101931.25;5066231;28;20067;-37
2021/12/12 09:26:18;;;;;;;22.05;3.03;;;;;;;9.72;100.00;101932.09;5069732;28;20055;-41
2021/12/12 09:28:50;;;;;;;17.48;3.38;;;;;;;9.72;100.00;101928.47;5069178;28;20047;-38
2021/12/12 09:31:25;;;;;;;26.48;3.47;;;;;;;9.72;100.00;101920.09;5069262;28;20048;-35
2021/12/12 09:33:59;;;;;;;29.50;3.78;;;;;;;9.73;100.00;101927.38;5065192;28;20413;-36
2021/12/12 09:36:35;;;;;;;20.90;3.15;;;;;;;9.74;100.00;101932.66;5070277;28;20048;-32
2021/12/12 09:39:08;;;;;;;22.25;3.33;;;;;;;9.74;100.00;101927.09;5069592;28;20181;-34
2021/12/12 09:41:52;;;;;;;21.92;3.15;;;;;;;9.78;100.00;101927.41;5071464;28;20059;-36
2021/12/12 09:44:40;;;;;;;22.65;3.20;;;;;;;9.76;100.00;101949.13;5070412;28;20040;-33
2021/12/12 09:47:29;;;;;;;16.60;2.50;;;;;;;9.76;100.00;101947.19;5072733;28;20045;-34
2021/12/12 09:53:22;;;;;;;15.65;2.38;;;;;;;9.79;100.00;101943.03;5072702;28;20565;-32
2021/12/12 09:55:55;;;;;;;20.67;2.78;;;;;;;9.79;100.00;101946.63;5070145;28;20047;-36
2021/12/12 09:58:26;;;;;;;;;;;;;;;9.74;100.00;101948.56;5073217;28;20131;-34
2021/12/12 10:00:59;;;;;;;14.88;2.45;;;;;;;9.74;100.00;101946.59;5073039;28;20103;-33
2021/12/12 10:03:33;;;;;;;15.77;2.53;;;;;;;9.79;100.00;101949.41;5072054;28;20473;-39
2021/12/12 10:06:08;;;;;;;11.23;1.83;;;;;;;9.81;100.00;101951.94;5070904;28;20234;-35
2021/12/12 10:08:48;;;;;;;18.55;2.55;;;;;;;9.82;100.00;101951.66;5072202;28;20044;-33
2021/12/12 10:11:23;;;;;;;12.77;2.20;;;;;;;9.80;100.00;101951.09;5069393;28;20143;-35
2021/12/12 10:13:58;;;;;;;14.38;2.42;;;;;;;9.79;100.00;101963.34;5072586;28;20055;-33
2021/12/12 10:16:32;;;;;;;17.13;2.45;;;;;;;9.80;100.00;101959.47;5071797;28;20106;-36
2021/12/12 10:19:05;;;;;;;16.90;2.80;;;;;;;9.81;100.00;101966.72;5073096;28;20037;-31
2021/12/12 10:21:39;;;;;;;17.48;2.83;;;;;;;9.82;100.00;101968.41;5072627;28;20060;-33
2021/12/12 10:24:21;;;;;;;17.73;2.78;;;;;;;9.83;100.00;101967.28;5071658;28;20394;-34
2021/12/12 10:26:56;;;;;;;25.02;3.55;;;;;;;9.83;100.00;101974.81;5069903;28;20045;-31
2021/12/12 10:29:29;;;;;;;18.17;3.03;;;;;;;9.84;100.00;101968.13;5071009;28;20049;-38
2021/12/12 10:32:03;;;;;;;19.90;3.33;;;;;;;9.87;100.00;101965.66;5068736;28;20048;-32
2021/12/12 10:34:36;;;;;;;20.10;3.15;;;;;;;9.88;100.00;101967.34;5072086;28;20053;-36
2021/12/12 10:37:09;;;;;;;24.20;2.72;;;;;;;9.91;100.00;101960.38;5067635;28;20424;-36
2021/12/12 10:39:45;;;;;;;14.48;2.30;;;;;;;9.91;100.00;101961.22;5072526;28;20094;-31
2021/12/12 10:42:16;;;;;;;16.27;2.28;;;;;;;9.93;100.00;101953.44;5071692;28;20086;-35
2021/12/12 10:44:48;;;;;;;16.35;2.67;;;;;;;9.95;100.00;101961.53;5071140;28;20409;-34
2021/12/12 10:47:21;;;;;;;15.43;2.30;;;;;;;9.96;100.00;101963.22;5071880;28;20047;-35
2021/12/12 10:50:02;;;;;;;17.73;2.60;;;;;;;9.94;100.00;101966.28;5072828;28;20075;-33
2021/12/12 10:52:37;;;;;;;17.23;2.67;;;;;;;9.97;100.00;101967.69;5071681;28;20052;-34
2021/12/12 10:55:09;;;;;;;20.00;3.55;;;;;;;9.97;100.00;101965.75;5072957;28;20519;-36
2021/12/12 10:57:39;;;;;;;14.90;2.60;;;;;;;9.99;100.00;101971.84;5071837;28;20044;-35
2021/12/12 11:00:12;;;;;;;15.98;2.70;;;;;;;10.04;100.00;101976.63;5072250;28;20048;-32
2021/12/12 11:02:47;;;;;;;17.05;2.55;;;;;;;10.04;100.00;101971.06;5072713;28;20052;-34
2021/12/12 11:05:18;;;;;;;21.90;2.88;;;;;;;10.05;100.00;101977.47;5072297;28;20110;-36
2021/12/12 11:08:02;;;;;;;15.63;2.28;;;;;;;10.08;100.00;101972.22;5072631;28;20045;-33
2021/12/12 11:10:34;;;;;;;27.13;3.30;;;;;;;10.09;100.00;101978.63;5072920;28;20052;-38
2021/12/12 11:13:09;;;;;;;15.90;2.97;;;;;;;10.10;100.00;101981.16;5072103;28;20048;-37
2021/12/12 11:15:43;;;;;;;24.75;2.85;;;;;;;10.12;100.00;101975.31;5072632;28;20581;-32
2021/12/12 11:18:15;;;;;;;16.17;2.70;;;;;;;10.14;100.00;101990.66;5072455;28;20143;-33
2021/12/12 11:20:47;;;;;;;13.48;2.30;;;;;;;10.17;100.00;101986.50;5071788;28;20095;-34
2021/12/12 11:23:21;;;;;;;20.30;2.53;;;;;;;10.20;100.00;101994.34;5072542;28;20067;-35
2021/12/12 11:25:55;;;;;;;15.80;2.75;;;;;;;10.20;100.00;101986.81;5072332;28;20059;-33
2021/12/12 11:28:29;;;;;;;25.25;3.08;;;;;;;10.20;100.00;101989.59;5072215;28;20436;-33
2021/12/12 11:31:02;;;;;;;32.95;3.70;;;;;;;10.20;100.00;101997.97;5072281;28;20052;-33
2021/12/12 11:33:34;;;;;;;24.88;3.67;;;;;;;10.20;100.00;101992.41;5072021;28;20115;-33
2021/12/12 11:36:04;;;;;;;30.13;3.40;;;;;;;10.19;100.00;101996.28;5071561;28;20040;-32
2021/12/12 11:38:40;;;;;;;24.23;3.08;;;;;;;10.19;100.00;101995.47;5066886;28;20283;-38
2021/12/12 11:41:15;;;;;;;20.27;3.45;;;;;;;10.19;100.00;101993.50;5071116;28;20513;-40
2021/12/12 11:43:53;;;;;;;23.50;3.92;;;;;;;10.21;100.00;102001.59;5068715;28;20532;-34
2021/12/12 11:46:49;;;;;;;34.67;4.20;;;;;;;10.20;100.00;102003.56;5072132;28;20086;-35
2021/12/12 11:49:22;;;;;;;24.42;3.55;;;;;;;10.22;100.00;102006.06;5071232;28;20052;-35
2021/12/12 11:51:56;;;;;;;13.23;2.55;;;;;;;10.21;100.00;102002.44;5071678;28;20066;-31
2021/12/12 11:54:34;;;;;;;17.63;3.28;;;;;;;10.25;100.00;102009.16;5071276;28;20048;-33
2021/12/12 11:57:07;;;;;;;20.65;3.03;;;;;;;10.26;100.00;102007.22;5071835;28;20051;-32
2021/12/12 11:59:41;;;;;;;18.55;2.60;;;;;;;10.29;100.00;102006.69;5070957;28;20464;-34